<?xml version="1.0" encoding="UTF-8" standalone="no" ?>
<gpx xmlns="http://www.topografix.com/GPX/1/1" xmlns:xsi="http://www.w3.org/2001/XMLSchema-instance" xsi:schemaLocation="http://www.topografix.com/GPX/1/1 http://www.topografix.com/GPX/1/1/gpx.xsd" version="1.1" creator="VisuGPX - https://www.visugpx.com">
  <metadata>
    <name>83 - V - Taradeau</name>
    <desc><![CDATA[Du cimetière vers le château de Rasque, château blanc et retour par les gorges de Gayepan]]></desc>
  </metadata>
  <wpt lat="43.45353" lon="6.43428">
    <ele>156</ele>
    <name><![CDATA[Point de passage 1]]></name>
  </wpt>
  <wpt lat="43.45391" lon="6.43386">
    <ele>156</ele>
    <name><![CDATA[Point de passage 2]]></name>
  </wpt>
  <trk>
    <name><![CDATA[Randonnée du 30/01/2026 à 13:45]]></name>
    <extensions>
      <line xmlns="http://www.topografix.com/GPX/gpx_style/0/2">
        <color>0000FF</color>
        <width>4</width>
      </line>
    </extensions>
    <trkseg>
      <trkpt lat="43.45353" lon="6.43428">
        <ele>156</ele>
        <time>2026-01-30T12:45:57.000Z</time>
      </trkpt>
      <trkpt lat="43.45331" lon="6.43436">
        <ele>151</ele>
        <time>2026-01-30T12:46:19.000Z</time>
      </trkpt>
      <trkpt lat="43.45353" lon="6.43445">
        <ele>156</ele>
        <time>2026-01-30T12:48:48.000Z</time>
      </trkpt>
      <trkpt lat="43.45374" lon="6.43433">
        <ele>159</ele>
        <time>2026-01-30T12:49:09.000Z</time>
      </trkpt>
      <trkpt lat="43.45394" lon="6.43418">
        <ele>160</ele>
        <time>2026-01-30T12:49:32.000Z</time>
      </trkpt>
      <trkpt lat="43.45417" lon="6.43416">
        <ele>162</ele>
        <time>2026-01-30T12:50:04.000Z</time>
      </trkpt>
      <trkpt lat="43.45402" lon="6.43441">
        <ele>167</ele>
        <time>2026-01-30T12:50:32.000Z</time>
      </trkpt>
      <trkpt lat="43.45423" lon="6.43456">
        <ele>176</ele>
        <time>2026-01-30T12:51:29.000Z</time>
      </trkpt>
      <trkpt lat="43.45444" lon="6.43442">
        <ele>178</ele>
        <time>2026-01-30T12:51:58.000Z</time>
      </trkpt>
      <trkpt lat="43.45464" lon="6.43428">
        <ele>180</ele>
        <time>2026-01-30T12:54:01.000Z</time>
      </trkpt>
      <trkpt lat="43.45481" lon="6.43449">
        <ele>191</ele>
        <time>2026-01-30T12:54:57.000Z</time>
      </trkpt>
      <trkpt lat="43.45503" lon="6.43453">
        <ele>194</ele>
        <time>2026-01-30T12:55:34.000Z</time>
      </trkpt>
      <trkpt lat="43.45518" lon="6.43477">
        <ele>203</ele>
        <time>2026-01-30T12:56:36.000Z</time>
      </trkpt>
      <trkpt lat="43.45527" lon="6.43506">
        <ele>217</ele>
        <time>2026-01-30T12:57:56.000Z</time>
      </trkpt>
      <trkpt lat="43.45544" lon="6.43526">
        <ele>222</ele>
        <time>2026-01-30T13:00:52.000Z</time>
      </trkpt>
      <trkpt lat="43.45559" lon="6.4355">
        <ele>229</ele>
        <time>2026-01-30T13:01:16.000Z</time>
      </trkpt>
      <trkpt lat="43.45574" lon="6.43573">
        <ele>232</ele>
        <time>2026-01-30T13:01:40.000Z</time>
      </trkpt>
      <trkpt lat="43.45552" lon="6.43568">
        <ele>235</ele>
        <time>2026-01-30T13:02:35.000Z</time>
      </trkpt>
      <trkpt lat="43.45561" lon="6.43598">
        <ele>238</ele>
        <time>2026-01-30T13:03:34.000Z</time>
      </trkpt>
      <trkpt lat="43.45573" lon="6.43625">
        <ele>242</ele>
        <time>2026-01-30T13:09:03.000Z</time>
      </trkpt>
      <trkpt lat="43.45569" lon="6.43655">
        <ele>245</ele>
        <time>2026-01-30T13:09:43.000Z</time>
      </trkpt>
      <trkpt lat="43.45547" lon="6.43667">
        <ele>245</ele>
        <time>2026-01-30T13:10:07.000Z</time>
      </trkpt>
      <trkpt lat="43.45568" lon="6.43652">
        <ele>246</ele>
        <time>2026-01-30T13:10:46.000Z</time>
      </trkpt>
      <trkpt lat="43.45548" lon="6.43666">
        <ele>245</ele>
        <time>2026-01-30T13:11:46.000Z</time>
      </trkpt>
      <trkpt lat="43.45543" lon="6.43696">
        <ele>247</ele>
        <time>2026-01-30T13:12:25.000Z</time>
      </trkpt>
      <trkpt lat="43.45546" lon="6.43727">
        <ele>246</ele>
        <time>2026-01-30T13:12:46.000Z</time>
      </trkpt>
      <trkpt lat="43.45527" lon="6.43748">
        <ele>248</ele>
        <time>2026-01-30T13:13:04.000Z</time>
      </trkpt>
      <trkpt lat="43.45511" lon="6.43769">
        <ele>249</ele>
        <time>2026-01-30T13:13:23.000Z</time>
      </trkpt>
      <trkpt lat="43.45497" lon="6.43794">
        <ele>245</ele>
        <time>2026-01-30T13:13:42.000Z</time>
      </trkpt>
      <trkpt lat="43.45486" lon="6.43822">
        <ele>242</ele>
        <time>2026-01-30T13:14:39.000Z</time>
      </trkpt>
      <trkpt lat="43.45495" lon="6.43794">
        <ele>244</ele>
        <time>2026-01-30T13:25:18.000Z</time>
      </trkpt>
      <trkpt lat="43.45509" lon="6.43769">
        <ele>245</ele>
        <time>2026-01-30T13:25:43.000Z</time>
      </trkpt>
      <trkpt lat="43.45528" lon="6.4375">
        <ele>247</ele>
        <time>2026-01-30T13:26:03.000Z</time>
      </trkpt>
      <trkpt lat="43.4555" lon="6.43739">
        <ele>248</ele>
        <time>2026-01-30T13:26:25.000Z</time>
      </trkpt>
      <trkpt lat="43.45571" lon="6.4373">
        <ele>247</ele>
        <time>2026-01-30T13:26:47.000Z</time>
      </trkpt>
      <trkpt lat="43.45594" lon="6.43725">
        <ele>243</ele>
        <time>2026-01-30T13:27:11.000Z</time>
      </trkpt>
      <trkpt lat="43.45617" lon="6.43724">
        <ele>240</ele>
        <time>2026-01-30T13:27:34.000Z</time>
      </trkpt>
      <trkpt lat="43.45639" lon="6.43725">
        <ele>237</ele>
        <time>2026-01-30T13:27:58.000Z</time>
      </trkpt>
      <trkpt lat="43.45662" lon="6.43734">
        <ele>235</ele>
        <time>2026-01-30T13:28:20.000Z</time>
      </trkpt>
      <trkpt lat="43.45682" lon="6.4375">
        <ele>230</ele>
        <time>2026-01-30T13:28:42.000Z</time>
      </trkpt>
      <trkpt lat="43.45698" lon="6.43772">
        <ele>226</ele>
        <time>2026-01-30T13:29:05.000Z</time>
      </trkpt>
      <trkpt lat="43.45712" lon="6.43798">
        <ele>221</ele>
        <time>2026-01-30T13:29:28.000Z</time>
      </trkpt>
      <trkpt lat="43.45726" lon="6.43823">
        <ele>218</ele>
        <time>2026-01-30T13:29:52.000Z</time>
      </trkpt>
      <trkpt lat="43.45736" lon="6.43851">
        <ele>214</ele>
        <time>2026-01-30T13:30:20.000Z</time>
      </trkpt>
      <trkpt lat="43.45744" lon="6.43881">
        <ele>210</ele>
        <time>2026-01-30T13:30:45.000Z</time>
      </trkpt>
      <trkpt lat="43.45748" lon="6.43911">
        <ele>207</ele>
        <time>2026-01-30T13:31:07.000Z</time>
      </trkpt>
      <trkpt lat="43.45748" lon="6.43943">
        <ele>204</ele>
        <time>2026-01-30T13:31:28.000Z</time>
      </trkpt>
      <trkpt lat="43.45741" lon="6.43973">
        <ele>198</ele>
        <time>2026-01-30T13:31:50.000Z</time>
      </trkpt>
      <trkpt lat="43.45742" lon="6.44005">
        <ele>196</ele>
        <time>2026-01-30T13:32:11.000Z</time>
      </trkpt>
      <trkpt lat="43.45748" lon="6.44035">
        <ele>193</ele>
        <time>2026-01-30T13:32:33.000Z</time>
      </trkpt>
      <trkpt lat="43.45758" lon="6.44063">
        <ele>191</ele>
        <time>2026-01-30T13:32:56.000Z</time>
      </trkpt>
      <trkpt lat="43.45773" lon="6.44087">
        <ele>190</ele>
        <time>2026-01-30T13:33:19.000Z</time>
      </trkpt>
      <trkpt lat="43.45794" lon="6.44099">
        <ele>191</ele>
        <time>2026-01-30T13:33:40.000Z</time>
      </trkpt>
      <trkpt lat="43.45817" lon="6.441">
        <ele>190</ele>
        <time>2026-01-30T13:34:02.000Z</time>
      </trkpt>
      <trkpt lat="43.4584" lon="6.44098">
        <ele>189</ele>
        <time>2026-01-30T13:34:24.000Z</time>
      </trkpt>
      <trkpt lat="43.45863" lon="6.44093">
        <ele>188</ele>
        <time>2026-01-30T13:34:47.000Z</time>
      </trkpt>
      <trkpt lat="43.45885" lon="6.44088">
        <ele>185</ele>
        <time>2026-01-30T13:35:08.000Z</time>
      </trkpt>
      <trkpt lat="43.45907" lon="6.44075">
        <ele>184</ele>
        <time>2026-01-30T13:35:28.000Z</time>
      </trkpt>
      <trkpt lat="43.45927" lon="6.44058">
        <ele>182</ele>
        <time>2026-01-30T13:35:47.000Z</time>
      </trkpt>
      <trkpt lat="43.45945" lon="6.4404">
        <ele>181</ele>
        <time>2026-01-30T13:36:09.000Z</time>
      </trkpt>
      <trkpt lat="43.45964" lon="6.44021">
        <ele>181</ele>
        <time>2026-01-30T13:41:55.000Z</time>
      </trkpt>
      <trkpt lat="43.45976" lon="6.43994">
        <ele>182</ele>
        <time>2026-01-30T13:42:17.000Z</time>
      </trkpt>
      <trkpt lat="43.45987" lon="6.43966">
        <ele>183</ele>
        <time>2026-01-30T13:42:42.000Z</time>
      </trkpt>
      <trkpt lat="43.45991" lon="6.43935">
        <ele>185</ele>
        <time>2026-01-30T13:43:03.000Z</time>
      </trkpt>
      <trkpt lat="43.45999" lon="6.43905">
        <ele>188</ele>
        <time>2026-01-30T13:43:26.000Z</time>
      </trkpt>
      <trkpt lat="43.4602" lon="6.43895">
        <ele>187</ele>
        <time>2026-01-30T13:43:48.000Z</time>
      </trkpt>
      <trkpt lat="43.46037" lon="6.43873">
        <ele>189</ele>
        <time>2026-01-30T13:44:09.000Z</time>
      </trkpt>
      <trkpt lat="43.46051" lon="6.43848">
        <ele>192</ele>
        <time>2026-01-30T13:44:31.000Z</time>
      </trkpt>
      <trkpt lat="43.46066" lon="6.43825">
        <ele>193</ele>
        <time>2026-01-30T13:44:51.000Z</time>
      </trkpt>
      <trkpt lat="43.46077" lon="6.43798">
        <ele>196</ele>
        <time>2026-01-30T13:45:11.000Z</time>
      </trkpt>
      <trkpt lat="43.46087" lon="6.4377">
        <ele>198</ele>
        <time>2026-01-30T13:45:33.000Z</time>
      </trkpt>
      <trkpt lat="43.46104" lon="6.43749">
        <ele>199</ele>
        <time>2026-01-30T13:45:56.000Z</time>
      </trkpt>
      <trkpt lat="43.46126" lon="6.43736">
        <ele>199</ele>
        <time>2026-01-30T13:46:20.000Z</time>
      </trkpt>
      <trkpt lat="43.46145" lon="6.43753">
        <ele>199</ele>
        <time>2026-01-30T13:46:40.000Z</time>
      </trkpt>
      <trkpt lat="43.46163" lon="6.43775">
        <ele>200</ele>
        <time>2026-01-30T13:47:03.000Z</time>
      </trkpt>
      <trkpt lat="43.46175" lon="6.43801">
        <ele>201</ele>
        <time>2026-01-30T13:47:25.000Z</time>
      </trkpt>
      <trkpt lat="43.46198" lon="6.438">
        <ele>204</ele>
        <time>2026-01-30T13:47:49.000Z</time>
      </trkpt>
      <trkpt lat="43.46211" lon="6.43774">
        <ele>204</ele>
        <time>2026-01-30T13:50:59.000Z</time>
      </trkpt>
      <trkpt lat="43.4622" lon="6.43744">
        <ele>205</ele>
        <time>2026-01-30T13:51:21.000Z</time>
      </trkpt>
      <trkpt lat="43.4623" lon="6.43716">
        <ele>205</ele>
        <time>2026-01-30T13:51:43.000Z</time>
      </trkpt>
      <trkpt lat="43.46241" lon="6.43689">
        <ele>206</ele>
        <time>2026-01-30T13:52:05.000Z</time>
      </trkpt>
      <trkpt lat="43.46252" lon="6.4366">
        <ele>207</ele>
        <time>2026-01-30T13:52:26.000Z</time>
      </trkpt>
      <trkpt lat="43.46265" lon="6.43634">
        <ele>208</ele>
        <time>2026-01-30T13:52:47.000Z</time>
      </trkpt>
      <trkpt lat="43.46279" lon="6.43609">
        <ele>208</ele>
        <time>2026-01-30T13:53:07.000Z</time>
      </trkpt>
      <trkpt lat="43.46294" lon="6.43584">
        <ele>209</ele>
        <time>2026-01-30T13:53:27.000Z</time>
      </trkpt>
      <trkpt lat="43.46309" lon="6.4356">
        <ele>209</ele>
        <time>2026-01-30T13:53:46.000Z</time>
      </trkpt>
      <trkpt lat="43.46321" lon="6.43534">
        <ele>209</ele>
        <time>2026-01-30T13:54:05.000Z</time>
      </trkpt>
      <trkpt lat="43.46338" lon="6.43512">
        <ele>209</ele>
        <time>2026-01-30T13:54:26.000Z</time>
      </trkpt>
      <trkpt lat="43.46354" lon="6.43489">
        <ele>209</ele>
        <time>2026-01-30T13:54:46.000Z</time>
      </trkpt>
      <trkpt lat="43.46369" lon="6.43465">
        <ele>209</ele>
        <time>2026-01-30T13:55:06.000Z</time>
      </trkpt>
      <trkpt lat="43.46384" lon="6.43442">
        <ele>209</ele>
        <time>2026-01-30T13:55:25.000Z</time>
      </trkpt>
      <trkpt lat="43.46397" lon="6.43415">
        <ele>209</ele>
        <time>2026-01-30T13:55:44.000Z</time>
      </trkpt>
      <trkpt lat="43.46409" lon="6.43389">
        <ele>210</ele>
        <time>2026-01-30T13:56:02.000Z</time>
      </trkpt>
      <trkpt lat="43.46417" lon="6.4336">
        <ele>208</ele>
        <time>2026-01-30T13:56:21.000Z</time>
      </trkpt>
      <trkpt lat="43.46426" lon="6.43331">
        <ele>209</ele>
        <time>2026-01-30T13:56:41.000Z</time>
      </trkpt>
      <trkpt lat="43.46438" lon="6.43304">
        <ele>210</ele>
        <time>2026-01-30T13:57:00.000Z</time>
      </trkpt>
      <trkpt lat="43.46452" lon="6.43279">
        <ele>211</ele>
        <time>2026-01-30T13:57:20.000Z</time>
      </trkpt>
      <trkpt lat="43.46469" lon="6.43259">
        <ele>210</ele>
        <time>2026-01-30T13:57:39.000Z</time>
      </trkpt>
      <trkpt lat="43.46487" lon="6.43241">
        <ele>210</ele>
        <time>2026-01-30T13:57:59.000Z</time>
      </trkpt>
      <trkpt lat="43.46503" lon="6.43218">
        <ele>209</ele>
        <time>2026-01-30T13:58:17.000Z</time>
      </trkpt>
      <trkpt lat="43.46521" lon="6.432">
        <ele>209</ele>
        <time>2026-01-30T14:00:21.000Z</time>
      </trkpt>
      <trkpt lat="43.46544" lon="6.432">
        <ele>209</ele>
        <time>2026-01-30T14:00:40.000Z</time>
      </trkpt>
      <trkpt lat="43.46567" lon="6.43199">
        <ele>208</ele>
        <time>2026-01-30T14:00:58.000Z</time>
      </trkpt>
      <trkpt lat="43.4659" lon="6.43197">
        <ele>209</ele>
        <time>2026-01-30T14:01:15.000Z</time>
      </trkpt>
      <trkpt lat="43.46613" lon="6.43197">
        <ele>209</ele>
        <time>2026-01-30T14:01:33.000Z</time>
      </trkpt>
      <trkpt lat="43.46637" lon="6.43195">
        <ele>210</ele>
        <time>2026-01-30T14:01:52.000Z</time>
      </trkpt>
      <trkpt lat="43.46661" lon="6.43194">
        <ele>212</ele>
        <time>2026-01-30T14:02:10.000Z</time>
      </trkpt>
      <trkpt lat="43.46684" lon="6.43193">
        <ele>210</ele>
        <time>2026-01-30T14:02:27.000Z</time>
      </trkpt>
      <trkpt lat="43.46707" lon="6.4319">
        <ele>208</ele>
        <time>2026-01-30T14:02:45.000Z</time>
      </trkpt>
      <trkpt lat="43.4673" lon="6.43188">
        <ele>208</ele>
        <time>2026-01-30T14:03:02.000Z</time>
      </trkpt>
      <trkpt lat="43.46753" lon="6.43186">
        <ele>209</ele>
        <time>2026-01-30T14:03:18.000Z</time>
      </trkpt>
      <trkpt lat="43.46776" lon="6.43185">
        <ele>210</ele>
        <time>2026-01-30T14:03:36.000Z</time>
      </trkpt>
      <trkpt lat="43.46799" lon="6.43184">
        <ele>212</ele>
        <time>2026-01-30T14:03:53.000Z</time>
      </trkpt>
      <trkpt lat="43.4681" lon="6.43157">
        <ele>216</ele>
        <time>2026-01-30T14:06:43.000Z</time>
      </trkpt>
      <trkpt lat="43.4681" lon="6.43126">
        <ele>217</ele>
        <time>2026-01-30T14:07:03.000Z</time>
      </trkpt>
      <trkpt lat="43.4681" lon="6.43094">
        <ele>219</ele>
        <time>2026-01-30T14:07:23.000Z</time>
      </trkpt>
      <trkpt lat="43.4681" lon="6.43062">
        <ele>221</ele>
        <time>2026-01-30T14:07:45.000Z</time>
      </trkpt>
      <trkpt lat="43.46804" lon="6.43031">
        <ele>221</ele>
        <time>2026-01-30T14:08:08.000Z</time>
      </trkpt>
      <trkpt lat="43.46796" lon="6.43002">
        <ele>222</ele>
        <time>2026-01-30T14:08:29.000Z</time>
      </trkpt>
      <trkpt lat="43.46783" lon="6.42976">
        <ele>220</ele>
        <time>2026-01-30T14:08:50.000Z</time>
      </trkpt>
      <trkpt lat="43.46795" lon="6.4295">
        <ele>217</ele>
        <time>2026-01-30T14:09:10.000Z</time>
      </trkpt>
      <trkpt lat="43.46818" lon="6.42939">
        <ele>217</ele>
        <time>2026-01-30T14:09:30.000Z</time>
      </trkpt>
      <trkpt lat="43.46841" lon="6.4293">
        <ele>217</ele>
        <time>2026-01-30T14:09:51.000Z</time>
      </trkpt>
      <trkpt lat="43.46864" lon="6.42929">
        <ele>214</ele>
        <time>2026-01-30T14:10:12.000Z</time>
      </trkpt>
      <trkpt lat="43.46887" lon="6.42929">
        <ele>215</ele>
        <time>2026-01-30T14:10:32.000Z</time>
      </trkpt>
      <trkpt lat="43.46911" lon="6.4293">
        <ele>214</ele>
        <time>2026-01-30T14:10:51.000Z</time>
      </trkpt>
      <trkpt lat="43.46934" lon="6.42931">
        <ele>214</ele>
        <time>2026-01-30T14:11:11.000Z</time>
      </trkpt>
      <trkpt lat="43.46954" lon="6.42916">
        <ele>213</ele>
        <time>2026-01-30T14:11:30.000Z</time>
      </trkpt>
      <trkpt lat="43.46965" lon="6.42889">
        <ele>212</ele>
        <time>2026-01-30T14:11:50.000Z</time>
      </trkpt>
      <trkpt lat="43.46974" lon="6.42859">
        <ele>213</ele>
        <time>2026-01-30T14:12:10.000Z</time>
      </trkpt>
      <trkpt lat="43.46984" lon="6.4283">
        <ele>214</ele>
        <time>2026-01-30T14:12:32.000Z</time>
      </trkpt>
      <trkpt lat="43.46999" lon="6.42806">
        <ele>214</ele>
        <time>2026-01-30T14:12:55.000Z</time>
      </trkpt>
      <trkpt lat="43.47021" lon="6.42793">
        <ele>215</ele>
        <time>2026-01-30T14:13:17.000Z</time>
      </trkpt>
      <trkpt lat="43.47036" lon="6.42769">
        <ele>215</ele>
        <time>2026-01-30T14:13:37.000Z</time>
      </trkpt>
      <trkpt lat="43.47049" lon="6.42743">
        <ele>215</ele>
        <time>2026-01-30T14:13:58.000Z</time>
      </trkpt>
      <trkpt lat="43.47062" lon="6.42718">
        <ele>216</ele>
        <time>2026-01-30T14:14:19.000Z</time>
      </trkpt>
      <trkpt lat="43.47077" lon="6.42694">
        <ele>216</ele>
        <time>2026-01-30T14:14:43.000Z</time>
      </trkpt>
      <trkpt lat="43.47091" lon="6.42669">
        <ele>215</ele>
        <time>2026-01-30T14:16:56.000Z</time>
      </trkpt>
      <trkpt lat="43.47105" lon="6.42644">
        <ele>216</ele>
        <time>2026-01-30T14:17:41.000Z</time>
      </trkpt>
      <trkpt lat="43.47124" lon="6.42627">
        <ele>218</ele>
        <time>2026-01-30T14:21:06.000Z</time>
      </trkpt>
      <trkpt lat="43.47147" lon="6.42633">
        <ele>221</ele>
        <time>2026-01-30T14:21:31.000Z</time>
      </trkpt>
      <trkpt lat="43.47169" lon="6.42634">
        <ele>226</ele>
        <time>2026-01-30T14:21:53.000Z</time>
      </trkpt>
      <trkpt lat="43.47193" lon="6.42636">
        <ele>229</ele>
        <time>2026-01-30T14:22:21.000Z</time>
      </trkpt>
      <trkpt lat="43.47216" lon="6.4264">
        <ele>230</ele>
        <time>2026-01-30T14:22:47.000Z</time>
      </trkpt>
      <trkpt lat="43.47237" lon="6.42626">
        <ele>232</ele>
        <time>2026-01-30T14:23:10.000Z</time>
      </trkpt>
      <trkpt lat="43.47259" lon="6.42621">
        <ele>227</ele>
        <time>2026-01-30T14:23:44.000Z</time>
      </trkpt>
      <trkpt lat="43.47281" lon="6.42634">
        <ele>225</ele>
        <time>2026-01-30T14:24:23.000Z</time>
      </trkpt>
      <trkpt lat="43.47303" lon="6.42639">
        <ele>224</ele>
        <time>2026-01-30T14:25:47.000Z</time>
      </trkpt>
      <trkpt lat="43.47296" lon="6.42608">
        <ele>221</ele>
        <time>2026-01-30T14:28:12.000Z</time>
      </trkpt>
      <trkpt lat="43.47295" lon="6.42577">
        <ele>220</ele>
        <time>2026-01-30T14:28:33.000Z</time>
      </trkpt>
      <trkpt lat="43.47307" lon="6.4255">
        <ele>218</ele>
        <time>2026-01-30T14:28:55.000Z</time>
      </trkpt>
      <trkpt lat="43.47323" lon="6.42528">
        <ele>215</ele>
        <time>2026-01-30T14:29:19.000Z</time>
      </trkpt>
      <trkpt lat="43.47336" lon="6.42501">
        <ele>213</ele>
        <time>2026-01-30T14:29:38.000Z</time>
      </trkpt>
      <trkpt lat="43.47348" lon="6.42475">
        <ele>213</ele>
        <time>2026-01-30T14:29:57.000Z</time>
      </trkpt>
      <trkpt lat="43.47357" lon="6.42445">
        <ele>212</ele>
        <time>2026-01-30T14:30:16.000Z</time>
      </trkpt>
      <trkpt lat="43.47363" lon="6.42415">
        <ele>209</ele>
        <time>2026-01-30T14:30:36.000Z</time>
      </trkpt>
      <trkpt lat="43.47371" lon="6.42385">
        <ele>207</ele>
        <time>2026-01-30T14:30:56.000Z</time>
      </trkpt>
      <trkpt lat="43.47386" lon="6.4236">
        <ele>205</ele>
        <time>2026-01-30T14:31:28.000Z</time>
      </trkpt>
      <trkpt lat="43.47402" lon="6.42336">
        <ele>201</ele>
        <time>2026-01-30T14:31:59.000Z</time>
      </trkpt>
      <trkpt lat="43.47421" lon="6.42317">
        <ele>198</ele>
        <time>2026-01-30T14:32:20.000Z</time>
      </trkpt>
      <trkpt lat="43.47439" lon="6.42299">
        <ele>195</ele>
        <time>2026-01-30T14:32:41.000Z</time>
      </trkpt>
      <trkpt lat="43.47461" lon="6.42287">
        <ele>193</ele>
        <time>2026-01-30T14:33:01.000Z</time>
      </trkpt>
      <trkpt lat="43.47482" lon="6.42271">
        <ele>188</ele>
        <time>2026-01-30T14:33:24.000Z</time>
      </trkpt>
      <trkpt lat="43.47499" lon="6.4225">
        <ele>186</ele>
        <time>2026-01-30T14:33:42.000Z</time>
      </trkpt>
      <trkpt lat="43.47508" lon="6.42222">
        <ele>184</ele>
        <time>2026-01-30T14:34:02.000Z</time>
      </trkpt>
      <trkpt lat="43.47504" lon="6.42191">
        <ele>182</ele>
        <time>2026-01-30T14:34:22.000Z</time>
      </trkpt>
      <trkpt lat="43.47497" lon="6.42162">
        <ele>181</ele>
        <time>2026-01-30T14:34:40.000Z</time>
      </trkpt>
      <trkpt lat="43.47491" lon="6.42132">
        <ele>180</ele>
        <time>2026-01-30T14:34:59.000Z</time>
      </trkpt>
      <trkpt lat="43.47485" lon="6.421">
        <ele>180</ele>
        <time>2026-01-30T14:35:18.000Z</time>
      </trkpt>
      <trkpt lat="43.47484" lon="6.42068">
        <ele>178</ele>
        <time>2026-01-30T14:35:38.000Z</time>
      </trkpt>
      <trkpt lat="43.47481" lon="6.42036">
        <ele>178</ele>
        <time>2026-01-30T14:35:57.000Z</time>
      </trkpt>
      <trkpt lat="43.47482" lon="6.42004">
        <ele>176</ele>
        <time>2026-01-30T14:36:16.000Z</time>
      </trkpt>
      <trkpt lat="43.47487" lon="6.41972">
        <ele>174</ele>
        <time>2026-01-30T14:36:35.000Z</time>
      </trkpt>
      <trkpt lat="43.475" lon="6.41946">
        <ele>171</ele>
        <time>2026-01-30T14:36:56.000Z</time>
      </trkpt>
      <trkpt lat="43.47506" lon="6.41914">
        <ele>168</ele>
        <time>2026-01-30T14:37:15.000Z</time>
      </trkpt>
      <trkpt lat="43.47491" lon="6.41889">
        <ele>166</ele>
        <time>2026-01-30T14:40:57.000Z</time>
      </trkpt>
      <trkpt lat="43.47468" lon="6.41884">
        <ele>167</ele>
        <time>2026-01-30T14:41:19.000Z</time>
      </trkpt>
      <trkpt lat="43.47446" lon="6.41892">
        <ele>167</ele>
        <time>2026-01-30T14:41:41.000Z</time>
      </trkpt>
      <trkpt lat="43.47425" lon="6.41902">
        <ele>171</ele>
        <time>2026-01-30T14:42:03.000Z</time>
      </trkpt>
      <trkpt lat="43.47402" lon="6.41901">
        <ele>173</ele>
        <time>2026-01-30T14:42:24.000Z</time>
      </trkpt>
      <trkpt lat="43.47379" lon="6.41903">
        <ele>175</ele>
        <time>2026-01-30T14:42:45.000Z</time>
      </trkpt>
      <trkpt lat="43.47356" lon="6.41902">
        <ele>176</ele>
        <time>2026-01-30T14:43:04.000Z</time>
      </trkpt>
      <trkpt lat="43.47334" lon="6.41892">
        <ele>170</ele>
        <time>2026-01-30T14:43:26.000Z</time>
      </trkpt>
      <trkpt lat="43.47311" lon="6.41886">
        <ele>169</ele>
        <time>2026-01-30T14:43:47.000Z</time>
      </trkpt>
      <trkpt lat="43.47287" lon="6.41886">
        <ele>166</ele>
        <time>2026-01-30T14:44:08.000Z</time>
      </trkpt>
      <trkpt lat="43.47264" lon="6.41892">
        <ele>164</ele>
        <time>2026-01-30T14:44:28.000Z</time>
      </trkpt>
      <trkpt lat="43.47243" lon="6.41906">
        <ele>160</ele>
        <time>2026-01-30T14:44:48.000Z</time>
      </trkpt>
      <trkpt lat="43.47221" lon="6.41916">
        <ele>158</ele>
        <time>2026-01-30T14:45:07.000Z</time>
      </trkpt>
      <trkpt lat="43.47199" lon="6.41921">
        <ele>154</ele>
        <time>2026-01-30T14:45:29.000Z</time>
      </trkpt>
      <trkpt lat="43.4718" lon="6.4194">
        <ele>150</ele>
        <time>2026-01-30T14:45:56.000Z</time>
      </trkpt>
      <trkpt lat="43.4717" lon="6.4197">
        <ele>150</ele>
        <time>2026-01-30T14:46:18.000Z</time>
      </trkpt>
      <trkpt lat="43.47156" lon="6.41996">
        <ele>152</ele>
        <time>2026-01-30T14:46:40.000Z</time>
      </trkpt>
      <trkpt lat="43.47151" lon="6.42027">
        <ele>157</ele>
        <time>2026-01-30T14:47:48.000Z</time>
      </trkpt>
      <trkpt lat="43.47139" lon="6.42">
        <ele>153</ele>
        <time>2026-01-30T14:49:26.000Z</time>
      </trkpt>
      <trkpt lat="43.47128" lon="6.41972">
        <ele>149</ele>
        <time>2026-01-30T14:49:52.000Z</time>
      </trkpt>
      <trkpt lat="43.47116" lon="6.41945">
        <ele>144</ele>
        <time>2026-01-30T14:50:14.000Z</time>
      </trkpt>
      <trkpt lat="43.47096" lon="6.41927">
        <ele>141</ele>
        <time>2026-01-30T14:50:36.000Z</time>
      </trkpt>
      <trkpt lat="43.47074" lon="6.41915">
        <ele>139</ele>
        <time>2026-01-30T14:50:58.000Z</time>
      </trkpt>
      <trkpt lat="43.47053" lon="6.419">
        <ele>136</ele>
        <time>2026-01-30T14:51:18.000Z</time>
      </trkpt>
      <trkpt lat="43.47033" lon="6.41885">
        <ele>131</ele>
        <time>2026-01-30T14:51:40.000Z</time>
      </trkpt>
      <trkpt lat="43.47011" lon="6.41878">
        <ele>126</ele>
        <time>2026-01-30T14:52:05.000Z</time>
      </trkpt>
      <trkpt lat="43.46989" lon="6.41887">
        <ele>123</ele>
        <time>2026-01-30T14:52:26.000Z</time>
      </trkpt>
      <trkpt lat="43.4697" lon="6.41904">
        <ele>119</ele>
        <time>2026-01-30T14:52:47.000Z</time>
      </trkpt>
      <trkpt lat="43.46951" lon="6.41921">
        <ele>117</ele>
        <time>2026-01-30T14:53:11.000Z</time>
      </trkpt>
      <trkpt lat="43.46931" lon="6.41937">
        <ele>116</ele>
        <time>2026-01-30T14:57:19.000Z</time>
      </trkpt>
      <trkpt lat="43.4691" lon="6.41952">
        <ele>112</ele>
        <time>2026-01-30T14:57:40.000Z</time>
      </trkpt>
      <trkpt lat="43.46895" lon="6.41976">
        <ele>111</ele>
        <time>2026-01-30T14:58:04.000Z</time>
      </trkpt>
      <trkpt lat="43.46874" lon="6.41988">
        <ele>112</ele>
        <time>2026-01-30T14:58:28.000Z</time>
      </trkpt>
      <trkpt lat="43.46853" lon="6.42002">
        <ele>111</ele>
        <time>2026-01-30T14:58:51.000Z</time>
      </trkpt>
      <trkpt lat="43.46835" lon="6.42021">
        <ele>112</ele>
        <time>2026-01-30T14:59:10.000Z</time>
      </trkpt>
      <trkpt lat="43.46816" lon="6.42038">
        <ele>112</ele>
        <time>2026-01-30T14:59:30.000Z</time>
      </trkpt>
      <trkpt lat="43.46796" lon="6.42055">
        <ele>114</ele>
        <time>2026-01-30T14:59:49.000Z</time>
      </trkpt>
      <trkpt lat="43.46774" lon="6.42064">
        <ele>110</ele>
        <time>2026-01-30T15:00:09.000Z</time>
      </trkpt>
      <trkpt lat="43.46766" lon="6.42093">
        <ele>112</ele>
        <time>2026-01-30T15:00:30.000Z</time>
      </trkpt>
      <trkpt lat="43.46763" lon="6.42124">
        <ele>117</ele>
        <time>2026-01-30T15:00:50.000Z</time>
      </trkpt>
      <trkpt lat="43.46743" lon="6.42138">
        <ele>119</ele>
        <time>2026-01-30T15:01:15.000Z</time>
      </trkpt>
      <trkpt lat="43.46724" lon="6.4212">
        <ele>118</ele>
        <time>2026-01-30T15:01:36.000Z</time>
      </trkpt>
      <trkpt lat="43.46705" lon="6.42103">
        <ele>119</ele>
        <time>2026-01-30T15:01:54.000Z</time>
      </trkpt>
      <trkpt lat="43.46684" lon="6.42087">
        <ele>117</ele>
        <time>2026-01-30T15:02:15.000Z</time>
      </trkpt>
      <trkpt lat="43.46663" lon="6.42076">
        <ele>116</ele>
        <time>2026-01-30T15:02:35.000Z</time>
      </trkpt>
      <trkpt lat="43.4664" lon="6.42072">
        <ele>118</ele>
        <time>2026-01-30T15:02:54.000Z</time>
      </trkpt>
      <trkpt lat="43.46617" lon="6.42072">
        <ele>118</ele>
        <time>2026-01-30T15:03:12.000Z</time>
      </trkpt>
      <trkpt lat="43.46597" lon="6.42087">
        <ele>120</ele>
        <time>2026-01-30T15:03:34.000Z</time>
      </trkpt>
      <trkpt lat="43.46577" lon="6.42103">
        <ele>120</ele>
        <time>2026-01-30T15:03:54.000Z</time>
      </trkpt>
      <trkpt lat="43.46558" lon="6.4212">
        <ele>121</ele>
        <time>2026-01-30T15:04:13.000Z</time>
      </trkpt>
      <trkpt lat="43.46542" lon="6.42143">
        <ele>121</ele>
        <time>2026-01-30T15:04:33.000Z</time>
      </trkpt>
      <trkpt lat="43.46529" lon="6.42168">
        <ele>122</ele>
        <time>2026-01-30T15:04:52.000Z</time>
      </trkpt>
      <trkpt lat="43.46519" lon="6.42196">
        <ele>124</ele>
        <time>2026-01-30T15:10:11.000Z</time>
      </trkpt>
      <trkpt lat="43.46517" lon="6.42229">
        <ele>124</ele>
        <time>2026-01-30T15:10:34.000Z</time>
      </trkpt>
      <trkpt lat="43.46502" lon="6.42253">
        <ele>124</ele>
        <time>2026-01-30T15:10:55.000Z</time>
      </trkpt>
      <trkpt lat="43.46497" lon="6.42283">
        <ele>123</ele>
        <time>2026-01-30T15:11:15.000Z</time>
      </trkpt>
      <trkpt lat="43.46509" lon="6.42309">
        <ele>124</ele>
        <time>2026-01-30T15:11:35.000Z</time>
      </trkpt>
      <trkpt lat="43.46519" lon="6.42338">
        <ele>127</ele>
        <time>2026-01-30T15:11:56.000Z</time>
      </trkpt>
      <trkpt lat="43.46523" lon="6.4237">
        <ele>129</ele>
        <time>2026-01-30T15:12:18.000Z</time>
      </trkpt>
      <trkpt lat="43.46524" lon="6.42401">
        <ele>128</ele>
        <time>2026-01-30T15:12:36.000Z</time>
      </trkpt>
      <trkpt lat="43.46525" lon="6.42433">
        <ele>128</ele>
        <time>2026-01-30T15:12:56.000Z</time>
      </trkpt>
      <trkpt lat="43.46526" lon="6.42466">
        <ele>131</ele>
        <time>2026-01-30T15:13:15.000Z</time>
      </trkpt>
      <trkpt lat="43.46507" lon="6.4245">
        <ele>133</ele>
        <time>2026-01-30T15:13:55.000Z</time>
      </trkpt>
      <trkpt lat="43.46496" lon="6.42422">
        <ele>131</ele>
        <time>2026-01-30T15:14:13.000Z</time>
      </trkpt>
      <trkpt lat="43.46481" lon="6.42398">
        <ele>129</ele>
        <time>2026-01-30T15:14:32.000Z</time>
      </trkpt>
      <trkpt lat="43.46461" lon="6.42382">
        <ele>128</ele>
        <time>2026-01-30T15:14:51.000Z</time>
      </trkpt>
      <trkpt lat="43.46442" lon="6.42365">
        <ele>127</ele>
        <time>2026-01-30T15:15:11.000Z</time>
      </trkpt>
      <trkpt lat="43.4642" lon="6.4235">
        <ele>125</ele>
        <time>2026-01-30T15:15:32.000Z</time>
      </trkpt>
      <trkpt lat="43.46397" lon="6.42351">
        <ele>125</ele>
        <time>2026-01-30T15:15:51.000Z</time>
      </trkpt>
      <trkpt lat="43.46375" lon="6.4236">
        <ele>126</ele>
        <time>2026-01-30T15:16:09.000Z</time>
      </trkpt>
      <trkpt lat="43.46355" lon="6.42376">
        <ele>128</ele>
        <time>2026-01-30T15:16:29.000Z</time>
      </trkpt>
      <trkpt lat="43.46336" lon="6.42394">
        <ele>129</ele>
        <time>2026-01-30T15:16:49.000Z</time>
      </trkpt>
      <trkpt lat="43.46318" lon="6.42417">
        <ele>130</ele>
        <time>2026-01-30T15:17:08.000Z</time>
      </trkpt>
      <trkpt lat="43.46299" lon="6.42437">
        <ele>130</ele>
        <time>2026-01-30T15:17:28.000Z</time>
      </trkpt>
      <trkpt lat="43.46286" lon="6.42465">
        <ele>131</ele>
        <time>2026-01-30T15:17:47.000Z</time>
      </trkpt>
      <trkpt lat="43.46273" lon="6.42491">
        <ele>133</ele>
        <time>2026-01-30T15:18:05.000Z</time>
      </trkpt>
      <trkpt lat="43.46256" lon="6.42512">
        <ele>131</ele>
        <time>2026-01-30T15:18:25.000Z</time>
      </trkpt>
      <trkpt lat="43.46247" lon="6.42542">
        <ele>131</ele>
        <time>2026-01-30T15:18:45.000Z</time>
      </trkpt>
      <trkpt lat="43.46239" lon="6.42571">
        <ele>132</ele>
        <time>2026-01-30T15:19:04.000Z</time>
      </trkpt>
      <trkpt lat="43.46232" lon="6.42602">
        <ele>135</ele>
        <time>2026-01-30T15:19:25.000Z</time>
      </trkpt>
      <trkpt lat="43.46231" lon="6.42633">
        <ele>137</ele>
        <time>2026-01-30T15:19:45.000Z</time>
      </trkpt>
      <trkpt lat="43.46223" lon="6.42663">
        <ele>138</ele>
        <time>2026-01-30T15:20:05.000Z</time>
      </trkpt>
      <trkpt lat="43.46217" lon="6.42694">
        <ele>136</ele>
        <time>2026-01-30T15:20:24.000Z</time>
      </trkpt>
      <trkpt lat="43.46208" lon="6.42722">
        <ele>138</ele>
        <time>2026-01-30T15:20:43.000Z</time>
      </trkpt>
      <trkpt lat="43.46209" lon="6.42753">
        <ele>140</ele>
        <time>2026-01-30T15:21:03.000Z</time>
      </trkpt>
      <trkpt lat="43.46204" lon="6.42783">
        <ele>141</ele>
        <time>2026-01-30T15:21:20.000Z</time>
      </trkpt>
      <trkpt lat="43.46202" lon="6.42816">
        <ele>141</ele>
        <time>2026-01-30T15:21:41.000Z</time>
      </trkpt>
      <trkpt lat="43.46192" lon="6.42844">
        <ele>143</ele>
        <time>2026-01-30T15:25:06.000Z</time>
      </trkpt>
      <trkpt lat="43.46182" lon="6.42872">
        <ele>146</ele>
        <time>2026-01-30T15:25:28.000Z</time>
      </trkpt>
      <trkpt lat="43.4616" lon="6.42863">
        <ele>149</ele>
        <time>2026-01-30T15:26:02.000Z</time>
      </trkpt>
      <trkpt lat="43.46153" lon="6.42833">
        <ele>149</ele>
        <time>2026-01-30T15:26:22.000Z</time>
      </trkpt>
      <trkpt lat="43.46142" lon="6.42806">
        <ele>150</ele>
        <time>2026-01-30T15:26:42.000Z</time>
      </trkpt>
      <trkpt lat="43.46126" lon="6.42783">
        <ele>154</ele>
        <time>2026-01-30T15:27:00.000Z</time>
      </trkpt>
      <trkpt lat="43.46121" lon="6.42752">
        <ele>155</ele>
        <time>2026-01-30T15:27:20.000Z</time>
      </trkpt>
      <trkpt lat="43.46123" lon="6.42719">
        <ele>155</ele>
        <time>2026-01-30T15:27:40.000Z</time>
      </trkpt>
      <trkpt lat="43.46123" lon="6.42688">
        <ele>155</ele>
        <time>2026-01-30T15:27:58.000Z</time>
      </trkpt>
      <trkpt lat="43.46118" lon="6.42657">
        <ele>154</ele>
        <time>2026-01-30T15:28:16.000Z</time>
      </trkpt>
      <trkpt lat="43.46113" lon="6.42626">
        <ele>153</ele>
        <time>2026-01-30T15:28:34.000Z</time>
      </trkpt>
      <trkpt lat="43.46102" lon="6.42598">
        <ele>152</ele>
        <time>2026-01-30T15:28:52.000Z</time>
      </trkpt>
      <trkpt lat="43.4609" lon="6.42572">
        <ele>150</ele>
        <time>2026-01-30T15:29:10.000Z</time>
      </trkpt>
      <trkpt lat="43.46071" lon="6.42554">
        <ele>147</ele>
        <time>2026-01-30T15:29:28.000Z</time>
      </trkpt>
      <trkpt lat="43.46047" lon="6.42552">
        <ele>146</ele>
        <time>2026-01-30T15:29:47.000Z</time>
      </trkpt>
      <trkpt lat="43.46023" lon="6.42556">
        <ele>146</ele>
        <time>2026-01-30T15:30:06.000Z</time>
      </trkpt>
      <trkpt lat="43.46" lon="6.42562">
        <ele>148</ele>
        <time>2026-01-30T15:30:25.000Z</time>
      </trkpt>
      <trkpt lat="43.45978" lon="6.42571">
        <ele>148</ele>
        <time>2026-01-30T15:30:43.000Z</time>
      </trkpt>
      <trkpt lat="43.45955" lon="6.42575">
        <ele>149</ele>
        <time>2026-01-30T15:31:00.000Z</time>
      </trkpt>
      <trkpt lat="43.45932" lon="6.4258">
        <ele>149</ele>
        <time>2026-01-30T15:31:18.000Z</time>
      </trkpt>
      <trkpt lat="43.45909" lon="6.42585">
        <ele>149</ele>
        <time>2026-01-30T15:31:37.000Z</time>
      </trkpt>
      <trkpt lat="43.45886" lon="6.42589">
        <ele>149</ele>
        <time>2026-01-30T15:31:56.000Z</time>
      </trkpt>
      <trkpt lat="43.45863" lon="6.42594">
        <ele>150</ele>
        <time>2026-01-30T15:32:15.000Z</time>
      </trkpt>
      <trkpt lat="43.45843" lon="6.42609">
        <ele>148</ele>
        <time>2026-01-30T15:35:11.000Z</time>
      </trkpt>
      <trkpt lat="43.45826" lon="6.42631">
        <ele>147</ele>
        <time>2026-01-30T15:35:32.000Z</time>
      </trkpt>
      <trkpt lat="43.45815" lon="6.42659">
        <ele>147</ele>
        <time>2026-01-30T15:35:52.000Z</time>
      </trkpt>
      <trkpt lat="43.45804" lon="6.42687">
        <ele>146</ele>
        <time>2026-01-30T15:36:11.000Z</time>
      </trkpt>
      <trkpt lat="43.45791" lon="6.42715">
        <ele>145</ele>
        <time>2026-01-30T15:36:30.000Z</time>
      </trkpt>
      <trkpt lat="43.45778" lon="6.4274">
        <ele>143</ele>
        <time>2026-01-30T15:36:49.000Z</time>
      </trkpt>
      <trkpt lat="43.45769" lon="6.42769">
        <ele>142</ele>
        <time>2026-01-30T15:37:10.000Z</time>
      </trkpt>
      <trkpt lat="43.45764" lon="6.428">
        <ele>140</ele>
        <time>2026-01-30T15:37:28.000Z</time>
      </trkpt>
      <trkpt lat="43.45771" lon="6.42831">
        <ele>139</ele>
        <time>2026-01-30T15:37:48.000Z</time>
      </trkpt>
      <trkpt lat="43.45779" lon="6.42861">
        <ele>140</ele>
        <time>2026-01-30T15:38:07.000Z</time>
      </trkpt>
      <trkpt lat="43.45758" lon="6.42876">
        <ele>138</ele>
        <time>2026-01-30T15:38:28.000Z</time>
      </trkpt>
      <trkpt lat="43.45735" lon="6.42878">
        <ele>135</ele>
        <time>2026-01-30T15:38:46.000Z</time>
      </trkpt>
      <trkpt lat="43.45712" lon="6.42884">
        <ele>131</ele>
        <time>2026-01-30T15:39:05.000Z</time>
      </trkpt>
      <trkpt lat="43.45692" lon="6.42901">
        <ele>130</ele>
        <time>2026-01-30T15:39:25.000Z</time>
      </trkpt>
      <trkpt lat="43.45677" lon="6.42925">
        <ele>131</ele>
        <time>2026-01-30T15:39:46.000Z</time>
      </trkpt>
      <trkpt lat="43.45663" lon="6.42951">
        <ele>129</ele>
        <time>2026-01-30T15:40:05.000Z</time>
      </trkpt>
      <trkpt lat="43.45664" lon="6.42983">
        <ele>129</ele>
        <time>2026-01-30T15:40:27.000Z</time>
      </trkpt>
      <trkpt lat="43.45671" lon="6.43014">
        <ele>130</ele>
        <time>2026-01-30T15:40:46.000Z</time>
      </trkpt>
      <trkpt lat="43.45679" lon="6.43045">
        <ele>131</ele>
        <time>2026-01-30T15:41:06.000Z</time>
      </trkpt>
      <trkpt lat="43.45674" lon="6.43077">
        <ele>132</ele>
        <time>2026-01-30T15:41:29.000Z</time>
      </trkpt>
      <trkpt lat="43.45652" lon="6.43065">
        <ele>129</ele>
        <time>2026-01-30T15:41:48.000Z</time>
      </trkpt>
      <trkpt lat="43.45629" lon="6.43058">
        <ele>125</ele>
        <time>2026-01-30T15:43:40.000Z</time>
      </trkpt>
      <trkpt lat="43.45606" lon="6.43062">
        <ele>123</ele>
        <time>2026-01-30T15:43:59.000Z</time>
      </trkpt>
      <trkpt lat="43.45585" lon="6.43077">
        <ele>123</ele>
        <time>2026-01-30T15:44:17.000Z</time>
      </trkpt>
      <trkpt lat="43.45571" lon="6.43103">
        <ele>125</ele>
        <time>2026-01-30T15:44:36.000Z</time>
      </trkpt>
      <trkpt lat="43.45565" lon="6.43134">
        <ele>129</ele>
        <time>2026-01-30T15:44:56.000Z</time>
      </trkpt>
      <trkpt lat="43.4556" lon="6.43164">
        <ele>130</ele>
        <time>2026-01-30T15:45:14.000Z</time>
      </trkpt>
      <trkpt lat="43.45554" lon="6.43194">
        <ele>133</ele>
        <time>2026-01-30T15:45:32.000Z</time>
      </trkpt>
      <trkpt lat="43.45547" lon="6.43224">
        <ele>135</ele>
        <time>2026-01-30T15:45:52.000Z</time>
      </trkpt>
      <trkpt lat="43.45532" lon="6.4325">
        <ele>137</ele>
        <time>2026-01-30T15:46:12.000Z</time>
      </trkpt>
      <trkpt lat="43.45513" lon="6.43267">
        <ele>138</ele>
        <time>2026-01-30T15:46:30.000Z</time>
      </trkpt>
      <trkpt lat="43.45494" lon="6.43285">
        <ele>140</ele>
        <time>2026-01-30T15:46:48.000Z</time>
      </trkpt>
      <trkpt lat="43.45473" lon="6.43298">
        <ele>142</ele>
        <time>2026-01-30T15:47:07.000Z</time>
      </trkpt>
      <trkpt lat="43.45451" lon="6.43303">
        <ele>144</ele>
        <time>2026-01-30T15:47:26.000Z</time>
      </trkpt>
      <trkpt lat="43.45428" lon="6.4331">
        <ele>146</ele>
        <time>2026-01-30T15:47:45.000Z</time>
      </trkpt>
      <trkpt lat="43.45411" lon="6.4333">
        <ele>150</ele>
        <time>2026-01-30T15:48:06.000Z</time>
      </trkpt>
      <trkpt lat="43.45404" lon="6.43361">
        <ele>153</ele>
        <time>2026-01-30T15:50:55.000Z</time>
      </trkpt>
      <trkpt lat="43.45391" lon="6.43386">
        <ele>156</ele>
        <time>2026-01-30T15:51:26.000Z</time>
      </trkpt>
    </trkseg>
  </trk>
</gpx>